sensor_id;sensor_type;location;lat;lon;timestamp;temperature;humidity
12557;DHT22;6344;49.932;8.308;2023-04-06T00:01:53;1.10;99.90
12557;DHT22;6344;49.932;8.308;2023-04-06T00:04:20;1.00;99.90
12557;DHT22;6344;49.932;8.308;2023-04-06T00:06:47;0.90;99.90
12557;DHT22;6344;49.932;8.308;2023-04-06T00:09:13;0.70;99.90
12557;DHT22;6344;49.932;8.308;2023-04-06T00:11:40;0.80;99.90
12557;DHT22;6344;49.932;8.308;2023-04-06T00:14:07;0.80;99.90
12557;DHT22;6344;49.932;8.308;2023-04-06T00:16:33;0.80;99.90
12557;DHT22;6344;49.932;8.308;2023-04-06T00:19:01;0.60;99.90
12557;DHT22;6344;49.932;8.308;2023-04-06T00:21:28;0.60;99.90
12557;DHT22;6344;49.932;8.308;2023-04-06T00:23:56;0.50;99.90
12557;DHT22;6344;49.932;8.308;2023-04-06T00:26:23;0.40;99.90
12557;DHT22;6344;49.932;8.308;2023-04-06T00:28:50;0.20;99.90
12557;DHT22;6344;49.932;8.308;2023-04-06T00:31:17;0.10;99.90
12557;DHT22;6344;49.932;8.308;2023-04-06T00:33:44;0.10;99.90
12557;DHT22;6344;49.932;8.308;2023-04-06T00:36:12;0.10;99.90
12557;DHT22;6344;49.932;8.308;2023-04-06T00:38:39;0.20;99.90
12557;DHT22;6344;49.932;8.308;2023-04-06T00:41:06;0.20;99.90
12557;DHT22;6344;49.932;8.308;2023-04-06T00:43:32;0.10;99.90
12557;DHT22;6344;49.932;8.308;2023-04-06T00:45:59;0.00;99.90
12557;DHT22;6344;49.932;8.308;2023-04-06T00:48:26;-0.10;99.90
12557;DHT22;6344;49.932;8.308;2023-04-06T00:50:52;-0.20;99.90
12557;DHT22;6344;49.932;8.308;2023-04-06T00:53:20;-0.40;99.90
12557;DHT22;6344;49.932;8.308;2023-04-06T00:55:47;-0.60;99.90
12557;DHT22;6344;49.932;8.308;2023-04-06T00:58:13;-0.60;99.90
12557;DHT22;6344;49.932;8.308;2023-04-06T01:00:40;-0.70;99.90
12557;DHT22;6344;49.932;8.308;2023-04-06T01:03:07;-0.70;99.90
12557;DHT22;6344;49.932;8.308;2023-04-06T01:05:34;-0.70;99.90
12557;DHT22;6344;49.932;8.308;2023-04-06T01:08:05;-0.90;99.90
12557;DHT22;6344;49.932;8.308;2023-04-06T01:10:33;-1.00;99.90
12557;DHT22;6344;49.932;8.308;2023-04-06T01:13:00;-1.10;99.90
12557;DHT22;6344;49.932;8.308;2023-04-06T01:15:28;-1.00;99.90
12557;DHT22;6344;49.932;8.308;2023-04-06T01:17:55;-0.90;99.90
12557;DHT22;6344;49.932;8.308;2023-04-06T01:20:22;-0.90;99.90
12557;DHT22;6344;49.932;8.308;2023-04-06T01:22:50;-0.90;99.90
12557;DHT22;6344;49.932;8.308;2023-04-06T01:25:17;-0.80;99.90
12557;DHT22;6344;49.932;8.308;2023-04-06T01:27:44;-0.90;99.90
12557;DHT22;6344;49.932;8.308;2023-04-06T01:30:11;-1.10;99.90
12557;DHT22;6344;49.932;8.308;2023-04-06T01:32:38;-1.20;99.90
12557;DHT22;6344;49.932;8.308;2023-04-06T01:35:05;-1.30;99.90
12557;DHT22;6344;49.932;8.308;2023-04-06T01:37:32;-1.50;99.90
12557;DHT22;6344;49.932;8.308;2023-04-06T01:40:00;-1.50;99.90
12557;DHT22;6344;49.932;8.308;2023-04-06T01:42:27;-1.70;99.90
12557;DHT22;6344;49.932;8.308;2023-04-06T01:44:53;-1.80;99.90
12557;DHT22;6344;49.932;8.308;2023-04-06T01:47:20;-2.00;99.90
12557;DHT22;6344;49.932;8.308;2023-04-06T01:49:47;-2.10;99.90
12557;DHT22;6344;49.932;8.308;2023-04-06T01:52:14;-2.10;99.90
12557;DHT22;6344;49.932;8.308;2023-04-06T01:54:41;-2.10;99.90
12557;DHT22;6344;49.932;8.308;2023-04-06T01:57:10;-2.00;99.90
12557;DHT22;6344;49.932;8.308;2023-04-06T01:59:36;-1.90;99.90
12557;DHT22;6344;49.932;8.308;2023-04-06T02:02:03;-2.00;99.90
12557;DHT22;6344;49.932;8.308;2023-04-06T02:04:29;-2.00;99.90
12557;DHT22;6344;49.932;8.308;2023-04-06T02:06:56;-2.00;99.90
12557;DHT22;6344;49.932;8.308;2023-04-06T02:09:23;-2.20;99.90
12557;DHT22;6344;49.932;8.308;2023-04-06T02:11:49;-2.20;99.90
12557;DHT22;6344;49.932;8.308;2023-04-06T02:14:17;-2.40;99.90
12557;DHT22;6344;49.932;8.308;2023-04-06T02:16:44;-2.40;99.90
12557;DHT22;6344;49.932;8.308;2023-04-06T02:19:11;-2.40;99.90
12557;DHT22;6344;49.932;8.308;2023-04-06T02:21:38;-2.30;99.90
12557;DHT22;6344;49.932;8.308;2023-04-06T02:24:05;-2.40;99.90
12557;DHT22;6344;49.932;8.308;2023-04-06T02:26:32;-2.40;99.90
12557;DHT22;6344;49.932;8.308;2023-04-06T02:28:58;-2.40;99.90
12557;DHT22;6344;49.932;8.308;2023-04-06T02:31:26;-2.20;99.90
12557;DHT22;6344;49.932;8.308;2023-04-06T02:33:53;-2.10;99.90
12557;DHT22;6344;49.932;8.308;2023-04-06T02:36:19;-2.10;99.90
12557;DHT22;6344;49.932;8.308;2023-04-06T02:38:46;-2.20;99.90
12557;DHT22;6344;49.932;8.308;2023-04-06T02:41:13;-2.30;99.90
12557;DHT22;6344;49.932;8.308;2023-04-06T02:43:40;-2.20;99.90
12557;DHT22;6344;49.932;8.308;2023-04-06T02:46:06;-2.10;99.90
12557;DHT22;6344;49.932;8.308;2023-04-06T02:48:34;-2.20;99.90
12557;DHT22;6344;49.932;8.308;2023-04-06T02:51:02;-2.20;99.90
12557;DHT22;6344;49.932;8.308;2023-04-06T02:53:29;-2.20;99.90
12557;DHT22;6344;49.932;8.308;2023-04-06T02:55:56;-2.20;99.90
12557;DHT22;6344;49.932;8.308;2023-04-06T02:58:22;-2.20;99.90
12557;DHT22;6344;49.932;8.308;2023-04-06T03:00:49;-2.10;99.90
12557;DHT22;6344;49.932;8.308;2023-04-06T03:03:16;-2.00;99.90
12557;DHT22;6344;49.932;8.308;2023-04-06T03:05:44;-1.90;99.90
12557;DHT22;6344;49.932;8.308;2023-04-06T03:08:10;-2.10;99.90
12557;DHT22;6344;49.932;8.308;2023-04-06T03:10:37;-2.20;99.90
12557;DHT22;6344;49.932;8.308;2023-04-06T03:13:03;-2.10;99.90
12557;DHT22;6344;49.932;8.308;2023-04-06T03:15:30;-2.00;99.90
12557;DHT22;6344;49.932;8.308;2023-04-06T03:17:57;-2.00;99.90
12557;DHT22;6344;49.932;8.308;2023-04-06T03:20:27;-2.00;99.90
12557;DHT22;6344;49.932;8.308;2023-04-06T03:22:55;-2.10;99.90
12557;DHT22;6344;49.932;8.308;2023-04-06T03:25:21;-2.20;99.90
12557;DHT22;6344;49.932;8.308;2023-04-06T03:27:48;-2.20;99.90
12557;DHT22;6344;49.932;8.308;2023-04-06T03:30:15;-2.40;99.90
12557;DHT22;6344;49.932;8.308;2023-04-06T03:32:42;-2.50;99.90
12557;DHT22;6344;49.932;8.308;2023-04-06T03:35:10;-2.60;99.90
12557;DHT22;6344;49.932;8.308;2023-04-06T03:37:36;-2.80;99.90
12557;DHT22;6344;49.932;8.308;2023-04-06T03:40:05;-2.80;99.90
12557;DHT22;6344;49.932;8.308;2023-04-06T03:42:32;-2.80;99.90
12557;DHT22;6344;49.932;8.308;2023-04-06T03:44:59;-2.80;99.90
12557;DHT22;6344;49.932;8.308;2023-04-06T03:47:25;-2.70;99.90
12557;DHT22;6344;49.932;8.308;2023-04-06T03:49:52;-2.80;99.90
12557;DHT22;6344;49.932;8.308;2023-04-06T03:52:19;-2.90;99.90
12557;DHT22;6344;49.932;8.308;2023-04-06T03:54:48;-2.90;99.90
12557;DHT22;6344;49.932;8.308;2023-04-06T03:57:16;-3.00;99.90
12557;DHT22;6344;49.932;8.308;2023-04-06T03:59:43;-3.00;99.90
12557;DHT22;6344;49.932;8.308;2023-04-06T04:02:10;-3.00;99.90
12557;DHT22;6344;49.932;8.308;2023-04-06T04:04:36;-2.90;99.90
12557;DHT22;6344;49.932;8.308;2023-04-06T04:07:03;-2.90;99.90
12557;DHT22;6344;49.932;8.308;2023-04-06T04:09:30;-2.80;99.90
12557;DHT22;6344;49.932;8.308;2023-04-06T04:11:56;-2.90;99.90
12557;DHT22;6344;49.932;8.308;2023-04-06T04:14:24;-2.90;99.90
12557;DHT22;6344;49.932;8.308;2023-04-06T04:16:51;-3.00;99.90
12557;DHT22;6344;49.932;8.308;2023-04-06T04:19:18;-3.10;99.90
12557;DHT22;6344;49.932;8.308;2023-04-06T04:21:45;-2.90;99.90
12557;DHT22;6344;49.932;8.308;2023-04-06T04:24:13;-2.90;99.90
12557;DHT22;6344;49.932;8.308;2023-04-06T04:26:40;-2.90;99.90
12557;DHT22;6344;49.932;8.308;2023-04-06T04:29:07;-3.00;99.90
12557;DHT22;6344;49.932;8.308;2023-04-06T04:31:35;-3.00;99.90
12557;DHT22;6344;49.932;8.308;2023-04-06T04:34:02;-3.00;99.90
12557;DHT22;6344;49.932;8.308;2023-04-06T04:36:29;-3.00;99.90
12557;DHT22;6344;49.932;8.308;2023-04-06T04:38:56;-3.00;99.90
12557;DHT22;6344;49.932;8.308;2023-04-06T04:41:22;-2.90;99.90
12557;DHT22;6344;49.932;8.308;2023-04-06T04:43:49;-2.90;99.90
12557;DHT22;6344;49.932;8.308;2023-04-06T04:46:15;-2.80;99.90
12557;DHT22;6344;49.932;8.308;2023-04-06T04:48:43;-2.70;99.90
12557;DHT22;6344;49.932;8.308;2023-04-06T04:51:10;-2.90;99.90
12557;DHT22;6344;49.932;8.308;2023-04-06T04:53:36;-2.90;99.90
12557;DHT22;6344;49.932;8.308;2023-04-06T04:56:03;-3.00;99.90
12557;DHT22;6344;49.932;8.308;2023-04-06T04:58:30;-3.00;99.90
12557;DHT22;6344;49.932;8.308;2023-04-06T05:00:57;-3.00;99.90
12557;DHT22;6344;49.932;8.308;2023-04-06T05:03:24;-3.00;99.90
12557;DHT22;6344;49.932;8.308;2023-04-06T05:05:53;-2.90;99.90
12557;DHT22;6344;49.932;8.308;2023-04-06T05:08:20;-2.80;99.90
12557;DHT22;6344;49.932;8.308;2023-04-06T05:10:47;-2.70;99.90
12557;DHT22;6344;49.932;8.308;2023-04-06T05:13:14;-2.70;99.90
12557;DHT22;6344;49.932;8.308;2023-04-06T05:15:41;-2.60;99.90
12557;DHT22;6344;49.932;8.308;2023-04-06T05:18:08;-2.60;99.90
12557;DHT22;6344;49.932;8.308;2023-04-06T05:20:35;-2.50;99.90
12557;DHT22;6344;49.932;8.308;2023-04-06T05:23:03;-2.40;99.90
12557;DHT22;6344;49.932;8.308;2023-04-06T05:25:30;-2.30;99.90
12557;DHT22;6344;49.932;8.308;2023-04-06T05:27:58;-2.20;99.90
12557;DHT22;6344;49.932;8.308;2023-04-06T05:30:24;-2.20;99.90
12557;DHT22;6344;49.932;8.308;2023-04-06T05:32:51;-2.10;99.90
12557;DHT22;6344;49.932;8.308;2023-04-06T05:35:18;-2.00;99.90
12557;DHT22;6344;49.932;8.308;2023-04-06T05:37:45;-1.90;99.90
12557;DHT22;6344;49.932;8.308;2023-04-06T05:40:13;-1.80;99.90
12557;DHT22;6344;49.932;8.308;2023-04-06T05:42:40;-1.80;99.90
12557;DHT22;6344;49.932;8.308;2023-04-06T05:45:08;-1.60;99.90
12557;DHT22;6344;49.932;8.308;2023-04-06T05:47:36;-1.50;99.90
12557;DHT22;6344;49.932;8.308;2023-04-06T05:50:04;-1.50;99.90
12557;DHT22;6344;49.932;8.308;2023-04-06T05:52:30;-1.10;99.90
12557;DHT22;6344;49.932;8.308;2023-04-06T05:54:57;-0.90;99.90
12557;DHT22;6344;49.932;8.308;2023-04-06T05:57:25;-0.80;99.90
12557;DHT22;6344;49.932;8.308;2023-04-06T05:59:52;-0.80;99.90
12557;DHT22;6344;49.932;8.308;2023-04-06T06:02:18;-0.50;99.90
12557;DHT22;6344;49.932;8.308;2023-04-06T06:04:45;-0.30;99.90
12557;DHT22;6344;49.932;8.308;2023-04-06T06:07:12;-0.20;99.90
12557;DHT22;6344;49.932;8.308;2023-04-06T06:09:38;0.10;99.90
12557;DHT22;6344;49.932;8.308;2023-04-06T06:12:05;0.20;99.90
12557;DHT22;6344;49.932;8.308;2023-04-06T06:14:33;0.30;99.90
12557;DHT22;6344;49.932;8.308;2023-04-06T06:17:00;0.50;99.90
12557;DHT22;6344;49.932;8.308;2023-04-06T06:19:26;0.90;99.90
12557;DHT22;6344;49.932;8.308;2023-04-06T06:21:53;1.10;99.90
12557;DHT22;6344;49.932;8.308;2023-04-06T06:24:20;1.40;99.90
12557;DHT22;6344;49.932;8.308;2023-04-06T06:26:46;2.00;99.90
12557;DHT22;6344;49.932;8.308;2023-04-06T06:29:14;2.30;99.90
12557;DHT22;6344;49.932;8.308;2023-04-06T06:31:42;2.60;99.90
12557;DHT22;6344;49.932;8.308;2023-04-06T06:34:08;2.70;99.90
12557;DHT22;6344;49.932;8.308;2023-04-06T06:36:35;2.90;99.90
12557;DHT22;6344;49.932;8.308;2023-04-06T06:39:02;3.20;99.90
12557;DHT22;6344;49.932;8.308;2023-04-06T06:41:29;3.20;99.90
12557;DHT22;6344;49.932;8.308;2023-04-06T06:43:56;3.30;99.90
12557;DHT22;6344;49.932;8.308;2023-04-06T06:46:22;3.40;99.90
12557;DHT22;6344;49.932;8.308;2023-04-06T06:48:50;3.90;99.90
12557;DHT22;6344;49.932;8.308;2023-04-06T06:51:17;3.90;99.90
12557;DHT22;6344;49.932;8.308;2023-04-06T06:53:44;4.60;99.90
12557;DHT22;6344;49.932;8.308;2023-04-06T06:56:10;4.60;99.90
12557;DHT22;6344;49.932;8.308;2023-04-06T06:58:38;4.70;99.90
12557;DHT22;6344;49.932;8.308;2023-04-06T07:01:04;4.60;99.90
12557;DHT22;6344;49.932;8.308;2023-04-06T07:03:31;4.10;99.90
12557;DHT22;6344;49.932;8.308;2023-04-06T07:05:59;4.40;99.90
12557;DHT22;6344;49.932;8.308;2023-04-06T07:08:26;5.00;99.90
12557;DHT22;6344;49.932;8.308;2023-04-06T07:10:53;5.30;99.90
12557;DHT22;6344;49.932;8.308;2023-04-06T07:13:21;5.40;99.90
12557;DHT22;6344;49.932;8.308;2023-04-06T07:15:48;5.70;99.90
12557;DHT22;6344;49.932;8.308;2023-04-06T07:18:16;6.20;99.90
12557;DHT22;6344;49.932;8.308;2023-04-06T07:20:42;6.40;99.90
12557;DHT22;6344;49.932;8.308;2023-04-06T07:23:10;7.00;99.90
12557;DHT22;6344;49.932;8.308;2023-04-06T07:25:37;6.90;99.90
12557;DHT22;6344;49.932;8.308;2023-04-06T07:28:04;6.60;99.90
12557;DHT22;6344;49.932;8.308;2023-04-06T07:30:31;6.60;99.90
12557;DHT22;6344;49.932;8.308;2023-04-06T07:32:57;7.10;99.90
12557;DHT22;6344;49.932;8.308;2023-04-06T07:35:25;7.80;99.90
12557;DHT22;6344;49.932;8.308;2023-04-06T07:37:52;8.70;99.90
12557;DHT22;6344;49.932;8.308;2023-04-06T07:40:20;9.40;99.90
12557;DHT22;6344;49.932;8.308;2023-04-06T07:42:47;10.00;99.90
12557;DHT22;6344;49.932;8.308;2023-04-06T07:45:14;9.90;99.90
12557;DHT22;6344;49.932;8.308;2023-04-06T07:47:42;9.70;99.90
12557;DHT22;6344;49.932;8.308;2023-04-06T07:50:09;9.80;99.90
12557;DHT22;6344;49.932;8.308;2023-04-06T07:52:36;9.70;99.90
12557;DHT22;6344;49.932;8.308;2023-04-06T07:55:03;9.80;99.90
12557;DHT22;6344;49.932;8.308;2023-04-06T07:57:31;10.20;99.90
12557;DHT22;6344;49.932;8.308;2023-04-06T07:59:58;10.10;99.90
12557;DHT22;6344;49.932;8.308;2023-04-06T08:02:25;10.20;99.90
12557;DHT22;6344;49.932;8.308;2023-04-06T08:04:51;10.20;99.90
12557;DHT22;6344;49.932;8.308;2023-04-06T08:07:18;10.70;99.90
12557;DHT22;6344;49.932;8.308;2023-04-06T08:09:45;11.00;99.90
12557;DHT22;6344;49.932;8.308;2023-04-06T08:12:12;10.80;99.90
12557;DHT22;6344;49.932;8.308;2023-04-06T08:14:40;10.50;99.90
12557;DHT22;6344;49.932;8.308;2023-04-06T08:17:07;11.40;99.90
12557;DHT22;6344;49.932;8.308;2023-04-06T08:19:34;11.70;99.90
12557;DHT22;6344;49.932;8.308;2023-04-06T08:22:00;12.30;99.90
12557;DHT22;6344;49.932;8.308;2023-04-06T08:24:27;12.00;99.90
12557;DHT22;6344;49.932;8.308;2023-04-06T08:26:54;11.40;99.90
12557;DHT22;6344;49.932;8.308;2023-04-06T08:29:21;11.00;99.90
12557;DHT22;6344;49.932;8.308;2023-04-06T08:31:49;11.40;99.90
12557;DHT22;6344;49.932;8.308;2023-04-06T08:34:15;11.50;99.90
12557;DHT22;6344;49.932;8.308;2023-04-06T08:36:42;11.70;99.90
12557;DHT22;6344;49.932;8.308;2023-04-06T08:39:08;11.80;99.90
12557;DHT22;6344;49.932;8.308;2023-04-06T08:41:35;12.00;99.90
12557;DHT22;6344;49.932;8.308;2023-04-06T08:44:02;12.30;99.90
12557;DHT22;6344;49.932;8.308;2023-04-06T08:46:30;12.30;99.90
12557;DHT22;6344;49.932;8.308;2023-04-06T08:48:59;12.20;99.90
12557;DHT22;6344;49.932;8.308;2023-04-06T08:51:28;13.10;99.90
12557;DHT22;6344;49.932;8.308;2023-04-06T08:53:56;13.40;99.90
12557;DHT22;6344;49.932;8.308;2023-04-06T08:56:26;13.20;99.90
12557;DHT22;6344;49.932;8.308;2023-04-06T08:58:53;13.20;99.90
12557;DHT22;6344;49.932;8.308;2023-04-06T09:01:21;12.70;99.90
12557;DHT22;6344;49.932;8.308;2023-04-06T09:03:49;13.50;99.90
12557;DHT22;6344;49.932;8.308;2023-04-06T09:06:18;13.50;99.90
12557;DHT22;6344;49.932;8.308;2023-04-06T09:08:45;13.60;99.90
12557;DHT22;6344;49.932;8.308;2023-04-06T09:11:12;13.80;99.90
12557;DHT22;6344;49.932;8.308;2023-04-06T09:13:46;14.00;99.90
12557;DHT22;6344;49.932;8.308;2023-04-06T09:16:12;13.60;99.90
12557;DHT22;6344;49.932;8.308;2023-04-06T09:18:39;14.50;99.90
12557;DHT22;6344;49.932;8.308;2023-04-06T09:21:07;14.50;99.90
12557;DHT22;6344;49.932;8.308;2023-04-06T09:23:35;14.80;99.90
12557;DHT22;6344;49.932;8.308;2023-04-06T09:26:09;15.40;99.90
12557;DHT22;6344;49.932;8.308;2023-04-06T09:28:44;16.00;99.90
12557;DHT22;6344;49.932;8.308;2023-04-06T09:31:12;16.40;1.00
12557;DHT22;6344;49.932;8.308;2023-04-06T09:33:38;16.00;1.00
12557;DHT22;6344;49.932;8.308;2023-04-06T09:36:06;16.40;1.00
12557;DHT22;6344;49.932;8.308;2023-04-06T09:38:36;16.10;1.00
12557;DHT22;6344;49.932;8.308;2023-04-06T09:41:03;16.50;1.00
12557;DHT22;6344;49.932;8.308;2023-04-06T09:43:30;16.70;1.00
12557;DHT22;6344;49.932;8.308;2023-04-06T09:45:57;16.50;1.00
12557;DHT22;6344;49.932;8.308;2023-04-06T09:48:25;17.20;1.00
12557;DHT22;6344;49.932;8.308;2023-04-06T09:50:58;17.80;1.00
12557;DHT22;6344;49.932;8.308;2023-04-06T09:53:26;17.60;1.00
12557;DHT22;6344;49.932;8.308;2023-04-06T09:55:57;17.00;1.00
12557;DHT22;6344;49.932;8.308;2023-04-06T09:58:33;16.80;1.00
12557;DHT22;6344;49.932;8.308;2023-04-06T10:01:05;17.00;1.00
12557;DHT22;6344;49.932;8.308;2023-04-06T10:03:41;16.90;1.00
12557;DHT22;6344;49.932;8.308;2023-04-06T10:06:11;17.50;1.00
12557;DHT22;6344;49.932;8.308;2023-04-06T10:08:40;18.00;1.00
12557;DHT22;6344;49.932;8.308;2023-04-06T10:11:09;17.60;1.00
12557;DHT22;6344;49.932;8.308;2023-04-06T10:13:36;17.30;1.00
12557;DHT22;6344;49.932;8.308;2023-04-06T10:16:03;16.60;1.00
12557;DHT22;6344;49.932;8.308;2023-04-06T10:18:31;17.60;1.00
12557;DHT22;6344;49.932;8.308;2023-04-06T10:21:07;17.10;1.00
12557;DHT22;6344;49.932;8.308;2023-04-06T10:23:36;17.20;1.00
12557;DHT22;6344;49.932;8.308;2023-04-06T10:26:03;17.20;1.00
12557;DHT22;6344;49.932;8.308;2023-04-06T10:28:35;17.40;1.00
12557;DHT22;6344;49.932;8.308;2023-04-06T10:31:05;18.10;1.00
12557;DHT22;6344;49.932;8.308;2023-04-06T10:33:32;18.40;1.00
12557;DHT22;6344;49.932;8.308;2023-04-06T10:36:09;18.20;1.00
12557;DHT22;6344;49.932;8.308;2023-04-06T10:38:37;19.20;1.00
12557;DHT22;6344;49.932;8.308;2023-04-06T10:41:05;19.70;1.00
12557;DHT22;6344;49.932;8.308;2023-04-06T10:43:35;18.90;1.00
12557;DHT22;6344;49.932;8.308;2023-04-06T10:46:03;18.20;1.00
12557;DHT22;6344;49.932;8.308;2023-04-06T10:48:37;17.70;1.00
12557;DHT22;6344;49.932;8.308;2023-04-06T10:51:08;17.80;1.00
12557;DHT22;6344;49.932;8.308;2023-04-06T10:53:34;18.00;1.00
12557;DHT22;6344;49.932;8.308;2023-04-06T10:56:02;17.40;1.00
12557;DHT22;6344;49.932;8.308;2023-04-06T10:58:30;17.90;1.00
12557;DHT22;6344;49.932;8.308;2023-04-06T11:00:58;18.00;1.00
12557;DHT22;6344;49.932;8.308;2023-04-06T11:03:25;18.30;1.00
12557;DHT22;6344;49.932;8.308;2023-04-06T11:05:52;18.70;1.00
12557;DHT22;6344;49.932;8.308;2023-04-06T11:08:24;18.00;1.00
12557;DHT22;6344;49.932;8.308;2023-04-06T11:10:51;17.10;1.00
12557;DHT22;6344;49.932;8.308;2023-04-06T11:13:18;17.40;1.00
12557;DHT22;6344;49.932;8.308;2023-04-06T11:15:45;18.10;1.00
12557;DHT22;6344;49.932;8.308;2023-04-06T11:18:17;18.20;1.00
12557;DHT22;6344;49.932;8.308;2023-04-06T11:20:47;18.70;1.00
12557;DHT22;6344;49.932;8.308;2023-04-06T11:23:22;18.60;1.00
12557;DHT22;6344;49.932;8.308;2023-04-06T11:25:50;18.30;1.00
12557;DHT22;6344;49.932;8.308;2023-04-06T11:28:17;18.10;1.00
12557;DHT22;6344;49.932;8.308;2023-04-06T11:30:45;17.60;1.00
12557;DHT22;6344;49.932;8.308;2023-04-06T11:33:20;17.90;1.00
12557;DHT22;6344;49.932;8.308;2023-04-06T11:35:46;18.40;1.00
12557;DHT22;6344;49.932;8.308;2023-04-06T11:38:13;19.00;1.00
12557;DHT22;6344;49.932;8.308;2023-04-06T11:40:40;18.40;1.00
12557;DHT22;6344;49.932;8.308;2023-04-06T11:43:11;18.50;1.00
12557;DHT22;6344;49.932;8.308;2023-04-06T11:45:41;17.80;1.00
12557;DHT22;6344;49.932;8.308;2023-04-06T11:48:18;17.70;1.00
12557;DHT22;6344;49.932;8.308;2023-04-06T11:50:46;18.30;1.00
12557;DHT22;6344;49.932;8.308;2023-04-06T11:53:14;18.70;1.00
12557;DHT22;6344;49.932;8.308;2023-04-06T11:55:40;19.30;1.00
12557;DHT22;6344;49.932;8.308;2023-04-06T11:58:10;19.40;1.00
12557;DHT22;6344;49.932;8.308;2023-04-06T12:00:37;20.20;1.00
12557;DHT22;6344;49.932;8.308;2023-04-06T12:03:03;20.60;1.00
12557;DHT22;6344;49.932;8.308;2023-04-06T12:05:32;20.60;1.00
12557;DHT22;6344;49.932;8.308;2023-04-06T12:07:59;20.90;1.00
12557;DHT22;6344;49.932;8.308;2023-04-06T12:10:26;20.40;1.00
12557;DHT22;6344;49.932;8.308;2023-04-06T12:12:52;20.00;1.00
12557;DHT22;6344;49.932;8.308;2023-04-06T12:15:19;19.90;1.00
12557;DHT22;6344;49.932;8.308;2023-04-06T12:17:46;20.20;1.00
12557;DHT22;6344;49.932;8.308;2023-04-06T12:20:13;20.00;1.00
12557;DHT22;6344;49.932;8.308;2023-04-06T12:22:41;19.80;1.00
12557;DHT22;6344;49.932;8.308;2023-04-06T12:25:08;19.30;1.00
12557;DHT22;6344;49.932;8.308;2023-04-06T12:27:35;19.90;1.00
12557;DHT22;6344;49.932;8.308;2023-04-06T12:30:02;19.80;1.00
12557;DHT22;6344;49.932;8.308;2023-04-06T12:32:29;19.90;1.00
12557;DHT22;6344;49.932;8.308;2023-04-06T12:34:56;20.30;1.00
12557;DHT22;6344;49.932;8.308;2023-04-06T12:37:22;20.20;1.00
12557;DHT22;6344;49.932;8.308;2023-04-06T12:39:50;19.70;1.00
12557;DHT22;6344;49.932;8.308;2023-04-06T12:42:17;19.70;1.00
12557;DHT22;6344;49.932;8.308;2023-04-06T12:44:43;19.40;1.00
12557;DHT22;6344;49.932;8.308;2023-04-06T12:47:12;19.20;1.00
12557;DHT22;6344;49.932;8.308;2023-04-06T12:49:39;19.00;1.00
12557;DHT22;6344;49.932;8.308;2023-04-06T12:52:05;19.20;1.00
12557;DHT22;6344;49.932;8.308;2023-04-06T12:54:32;19.40;1.00
12557;DHT22;6344;49.932;8.308;2023-04-06T12:57:00;18.80;1.00
12557;DHT22;6344;49.932;8.308;2023-04-06T12:59:27;18.10;1.00
12557;DHT22;6344;49.932;8.308;2023-04-06T13:01:59;18.30;1.00
12557;DHT22;6344;49.932;8.308;2023-04-06T13:04:26;18.30;1.00
12557;DHT22;6344;49.932;8.308;2023-04-06T13:06:53;18.20;1.00
12557;DHT22;6344;49.932;8.308;2023-04-06T13:09:19;18.30;1.00
12557;DHT22;6344;49.932;8.308;2023-04-06T13:11:46;19.10;1.00
12557;DHT22;6344;49.932;8.308;2023-04-06T13:14:14;19.00;1.00
12557;DHT22;6344;49.932;8.308;2023-04-06T13:16:40;18.50;1.00
12557;DHT22;6344;49.932;8.308;2023-04-06T13:19:08;18.50;1.00
12557;DHT22;6344;49.932;8.308;2023-04-06T13:21:36;18.30;1.00
12557;DHT22;6344;49.932;8.308;2023-04-06T13:24:03;18.30;1.00
12557;DHT22;6344;49.932;8.308;2023-04-06T13:26:30;17.80;1.00
12557;DHT22;6344;49.932;8.308;2023-04-06T13:28:57;18.00;1.00
12557;DHT22;6344;49.932;8.308;2023-04-06T13:31:25;17.80;1.00
12557;DHT22;6344;49.932;8.308;2023-04-06T13:33:52;17.90;1.00
12557;DHT22;6344;49.932;8.308;2023-04-06T13:36:18;17.60;1.00
12557;DHT22;6344;49.932;8.308;2023-04-06T13:38:45;17.20;1.00
12557;DHT22;6344;49.932;8.308;2023-04-06T13:41:18;16.90;1.00
12557;DHT22;6344;49.932;8.308;2023-04-06T13:43:46;16.90;1.00
12557;DHT22;6344;49.932;8.308;2023-04-06T13:46:12;17.10;1.00
12557;DHT22;6344;49.932;8.308;2023-04-06T13:48:40;17.10;1.00
12557;DHT22;6344;49.932;8.308;2023-04-06T13:51:10;16.90;1.00
12557;DHT22;6344;49.932;8.308;2023-04-06T13:53:38;16.90;1.00
12557;DHT22;6344;49.932;8.308;2023-04-06T13:56:05;17.30;1.00
12557;DHT22;6344;49.932;8.308;2023-04-06T13:58:32;17.40;1.00
12557;DHT22;6344;49.932;8.308;2023-04-06T14:01:02;17.20;1.00
12557;DHT22;6344;49.932;8.308;2023-04-06T14:03:29;17.20;1.00
12557;DHT22;6344;49.932;8.308;2023-04-06T14:05:58;16.90;1.00
12557;DHT22;6344;49.932;8.308;2023-04-06T14:08:24;17.00;1.00
12557;DHT22;6344;49.932;8.308;2023-04-06T14:10:51;16.90;1.00
12557;DHT22;6344;49.932;8.308;2023-04-06T14:13:19;16.60;1.00
12557;DHT22;6344;49.932;8.308;2023-04-06T14:15:46;16.40;1.00
12557;DHT22;6344;49.932;8.308;2023-04-06T14:18:12;16.60;1.00
12557;DHT22;6344;49.932;8.308;2023-04-06T14:20:39;16.60;1.00
12557;DHT22;6344;49.932;8.308;2023-04-06T14:23:07;16.60;1.00
12557;DHT22;6344;49.932;8.308;2023-04-06T14:25:33;16.60;1.00
12557;DHT22;6344;49.932;8.308;2023-04-06T14:28:00;16.20;1.00
12557;DHT22;6344;49.932;8.308;2023-04-06T14:30:27;16.10;1.00
12557;DHT22;6344;49.932;8.308;2023-04-06T14:32:56;15.90;1.00
12557;DHT22;6344;49.932;8.308;2023-04-06T14:35:23;15.80;1.00
12557;DHT22;6344;49.932;8.308;2023-04-06T14:37:50;16.20;1.00
12557;DHT22;6344;49.932;8.308;2023-04-06T14:40:18;15.90;1.00
12557;DHT22;6344;49.932;8.308;2023-04-06T14:42:45;16.00;1.00
12557;DHT22;6344;49.932;8.308;2023-04-06T14:45:12;16.30;1.00
12557;DHT22;6344;49.932;8.308;2023-04-06T14:47:38;15.90;1.00
12557;DHT22;6344;49.932;8.308;2023-04-06T14:50:06;16.00;1.00
12557;DHT22;6344;49.932;8.308;2023-04-06T14:52:33;15.80;1.00
12557;DHT22;6344;49.932;8.308;2023-04-06T14:55:00;15.80;1.00
12557;DHT22;6344;49.932;8.308;2023-04-06T14:57:28;15.80;1.00
12557;DHT22;6344;49.932;8.308;2023-04-06T14:59:54;15.60;1.00
12557;DHT22;6344;49.932;8.308;2023-04-06T15:02:21;15.50;1.00
12557;DHT22;6344;49.932;8.308;2023-04-06T15:04:48;15.40;1.00
12557;DHT22;6344;49.932;8.308;2023-04-06T15:07:15;15.20;1.00
12557;DHT22;6344;49.932;8.308;2023-04-06T15:09:42;15.00;1.00
12557;DHT22;6344;49.932;8.308;2023-04-06T15:12:08;15.10;1.00
12557;DHT22;6344;49.932;8.308;2023-04-06T15:14:36;15.20;1.00
12557;DHT22;6344;49.932;8.308;2023-04-06T15:17:03;15.10;1.00
12557;DHT22;6344;49.932;8.308;2023-04-06T15:19:29;15.10;1.00
12557;DHT22;6344;49.932;8.308;2023-04-06T15:21:56;14.90;1.00
12557;DHT22;6344;49.932;8.308;2023-04-06T15:24:22;14.90;1.00
12557;DHT22;6344;49.932;8.308;2023-04-06T15:26:49;14.90;1.00
12557;DHT22;6344;49.932;8.308;2023-04-06T15:29:16;14.40;1.00
12557;DHT22;6344;49.932;8.308;2023-04-06T15:31:44;14.20;1.00
12557;DHT22;6344;49.932;8.308;2023-04-06T15:34:11;14.10;1.00
12557;DHT22;6344;49.932;8.308;2023-04-06T15:36:37;14.10;1.00
12557;DHT22;6344;49.932;8.308;2023-04-06T15:39:04;14.00;1.00
12557;DHT22;6344;49.932;8.308;2023-04-06T15:41:34;13.70;1.00
12557;DHT22;6344;49.932;8.308;2023-04-06T15:44:01;13.60;1.00
12557;DHT22;6344;49.932;8.308;2023-04-06T15:46:27;13.40;1.00
12557;DHT22;6344;49.932;8.308;2023-04-06T15:48:55;13.40;1.00
12557;DHT22;6344;49.932;8.308;2023-04-06T15:51:22;13.50;1.00
12557;DHT22;6344;49.932;8.308;2023-04-06T15:53:49;13.40;1.00
12557;DHT22;6344;49.932;8.308;2023-04-06T15:56:16;13.40;1.00